createdAt,value
2023-04-18T00:01:32.035Z,9.14
2023-04-18T00:06:36.008Z,9.39
2023-04-18T00:11:37.830Z,7.84
2023-04-18T00:16:39.926Z,6.81
2023-04-18T00:21:44.987Z,7.71
2023-04-18T00:26:47.065Z,7.45
2023-04-18T00:31:48.927Z,8.11
2023-04-18T00:36:50.911Z,5.83
2023-04-18T00:41:52.719Z,7.12
2023-04-18T00:46:54.629Z,7.41
2023-04-18T00:51:57.011Z,3.69
2023-04-18T00:56:58.883Z,6.20
2023-04-18T01:02:02.315Z,6.61
2023-04-18T01:07:04.614Z,6.89
2023-04-18T01:12:06.617Z,5.51
2023-04-18T01:17:11.045Z,6.87
2023-04-18T01:22:14.374Z,5.84
2023-04-18T01:27:16.205Z,5.63
2023-04-18T01:32:20.210Z,5.39
2023-04-18T01:37:22.158Z,6.85
2023-04-18T01:42:23.986Z,5.24
2023-04-18T01:47:25.899Z,4.67
2023-04-18T01:52:27.849Z,6.72
2023-04-18T01:57:30.466Z,5.59
2023-04-18T02:02:32.962Z,5.38
2023-04-18T02:07:34.912Z,5.70
2023-04-18T02:12:37.190Z,7.04
2023-04-18T02:17:39.242Z,7.46
2023-04-18T02:22:41.073Z,7.88
2023-04-18T02:27:42.826Z,8.13
2023-04-18T02:32:44.616Z,7.80
2023-04-18T02:37:46.519Z,5.78
2023-04-18T02:42:48.279Z,6.18
2023-04-18T02:47:55.274Z,7.45
2023-04-18T02:52:58.089Z,7.51
2023-04-18T02:58:07.374Z,7.62
2023-04-18T03:03:21.441Z,5.17
2023-04-18T03:08:32.046Z,6.32
2023-04-18T03:13:35.330Z,6.98
2023-04-18T03:18:37.519Z,7.66
2023-04-18T03:23:40.831Z,7.23
2023-04-18T03:28:42.742Z,6.77
2023-04-18T03:33:45.718Z,6.99
2023-04-18T03:38:47.532Z,7.51
2023-04-18T03:43:49.444Z,7.41
2023-04-18T03:48:52.258Z,8.12
2023-04-18T03:53:54.286Z,8.31
2023-04-18T03:58:58.780Z,7.90
2023-04-18T04:04:01.930Z,8.43
2023-04-18T04:09:04.400Z,8.64
2023-04-18T04:14:06.351Z,7.75
2023-04-18T04:19:15.007Z,8.56
2023-04-18T04:24:42.852Z,6.09
2023-04-18T04:29:47.418Z,6.19
2023-04-18T04:34:49.510Z,7.72
2023-04-18T04:39:52.419Z,7.84
2023-04-18T04:45:20.055Z,7.18
2023-04-18T04:50:21.977Z,5.38
2023-04-18T04:55:24.600Z,7.46
2023-04-18T05:00:26.553Z,7.96
2023-04-18T05:05:28.976Z,8.13
2023-04-18T05:10:30.794Z,8.29
2023-04-18T05:15:32.717Z,8.86
2023-04-18T05:20:34.690Z,7.80
2023-04-18T05:25:36.810Z,6.78
2023-04-18T05:30:39.970Z,5.25
2023-04-18T05:35:41.892Z,5.54
2023-04-18T05:40:44.085Z,7.38
2023-04-18T05:45:46.451Z,7.69
2023-04-18T05:50:48.290Z,7.19
2023-04-18T05:55:50.392Z,5.72
2023-04-18T06:00:53.396Z,7.08
2023-04-18T06:05:55.381Z,5.13
2023-04-18T06:10:57.238Z,6.48
2023-04-18T06:16:00.899Z,7.34
2023-04-18T06:21:02.857Z,4.84
2023-04-18T06:26:04.740Z,5.60
2023-04-18T06:31:06.673Z,6.16
2023-04-18T06:36:09.013Z,6.58
2023-04-18T06:41:10.887Z,7.74
2023-04-18T06:46:13.024Z,7.90
2023-04-18T06:51:14.831Z,8.73
2023-04-18T06:56:16.616Z,9.04
2023-04-18T07:01:19.434Z,8.86
2023-04-18T07:06:21.426Z,5.34
2023-04-18T07:11:23.784Z,4.58
2023-04-18T07:16:25.809Z,5.43
2023-04-18T07:21:28.256Z,5.10
2023-04-18T07:26:30.469Z,5.45
2023-04-18T07:31:32.921Z,4.55
2023-04-18T07:36:35.023Z,4.84
2023-04-18T07:41:36.919Z,3.02
2023-04-18T07:46:39.004Z,4.57
2023-04-18T07:51:40.828Z,2.50
2023-04-18T07:56:42.655Z,1.85
2023-04-18T08:01:44.657Z,1.32
2023-04-18T08:06:46.496Z,3.52
2023-04-18T08:11:48.305Z,5.76
2023-04-18T08:16:50.176Z,3.50
2023-04-18T08:21:52.232Z,1.99
2023-04-18T08:26:56.951Z,2.83
2023-04-18T08:31:59.108Z,1.73
2023-04-18T08:37:01.170Z,2.12
2023-04-18T08:42:06.393Z,2.16
2023-04-18T08:47:09.656Z,1.58
2023-04-18T08:52:14.059Z,2.42
2023-04-18T08:57:17.765Z,2.06
2023-04-18T09:02:22.136Z,2.26
2023-04-18T09:07:30.781Z,1.25
2023-04-18T09:12:34.587Z,3.09
2023-04-18T09:17:38.507Z,5.19
2023-04-18T09:22:50.610Z,3.95
2023-04-18T09:27:53.171Z,6.36
2023-04-18T09:33:04.929Z,3.75
2023-04-18T09:38:07.933Z,3.18
2023-04-18T09:43:19.480Z,2.51
2023-04-18T09:48:21.904Z,2.27
2023-04-18T09:53:25.241Z,3.14
2023-04-18T09:58:34.396Z,3.85
2023-04-18T10:03:47.897Z,2.68
2023-04-18T10:08:51.885Z,5.63
2023-04-18T10:13:57.614Z,6.17
2023-04-18T10:19:23.801Z,3.29
2023-04-18T10:24:50.016Z,4.35
2023-04-18T10:29:54.664Z,5.94
2023-04-18T10:34:56.701Z,4.55
2023-04-18T10:40:02.776Z,4.27
2023-04-18T10:45:18.454Z,4.17
2023-04-18T10:50:20.330Z,5.97
2023-04-18T10:55:28.748Z,3.85
2023-04-18T11:00:31.929Z,5.02
2023-04-18T11:05:34.644Z,4.46
2023-04-18T11:10:36.843Z,8.41
2023-04-18T11:15:39.882Z,6.93
2023-04-18T11:20:50.813Z,6.44
2023-04-18T11:25:56.421Z,5.51
2023-04-18T11:31:00.219Z,6.05
2023-04-18T11:36:02.684Z,4.83
2023-04-18T11:41:04.594Z,5.43
2023-04-18T11:46:06.772Z,5.45
2023-04-18T11:51:32.455Z,5.52
2023-04-18T11:56:36.622Z,4.34
2023-04-18T12:01:38.731Z,4.97
2023-04-18T12:06:48.430Z,5.10
2023-04-18T12:12:03.824Z,4.54
2023-04-18T12:17:05.802Z,5.09
2023-04-18T12:22:09.358Z,4.96
2023-04-18T12:27:12.145Z,5.51
2023-04-18T12:32:13.971Z,7.14
2023-04-18T12:37:15.825Z,6.97
2023-04-18T12:42:17.652Z,6.71
2023-04-18T12:47:19.595Z,6.25
2023-04-18T12:52:21.451Z,6.89
2023-04-18T12:57:23.905Z,8.80
2023-04-18T13:02:26.649Z,7.07
2023-04-18T13:07:28.761Z,8.92
2023-04-18T13:12:30.838Z,11.59
2023-04-18T13:17:33.963Z,9.04
2023-04-18T13:22:39.786Z,9.08
2023-04-18T13:27:42.080Z,11.88
2023-04-18T13:32:44.175Z,8.71
2023-04-18T13:37:46.342Z,9.03
2023-04-18T13:42:48.457Z,7.43
2023-04-18T13:47:50.920Z,8.49
2023-04-18T13:52:54.614Z,8.98
2023-04-18T13:57:56.833Z,8.97
2023-04-18T14:02:58.766Z,8.98
2023-04-18T14:08:03.901Z,10.65
2023-04-18T14:13:05.895Z,9.80
2023-04-18T14:18:07.845Z,12.60
2023-04-18T14:23:09.795Z,12.09
2023-04-18T14:28:12.156Z,10.37
2023-04-18T14:33:13.955Z,10.35
2023-04-18T14:38:16.181Z,11.41
2023-04-18T14:43:17.986Z,11.20
2023-04-18T14:48:19.941Z,12.27
2023-04-18T14:53:21.900Z,14.38
2023-04-18T14:58:23.742Z,13.82
2023-04-18T15:03:25.909Z,12.93
2023-04-18T15:08:27.835Z,13.87
2023-04-18T15:13:29.619Z,14.52
2023-04-18T15:18:31.397Z,12.63
2023-04-18T15:23:34.157Z,14.42
2023-04-18T15:28:36.026Z,15.18
2023-04-18T15:33:37.813Z,15.21
2023-04-18T15:38:40.064Z,16.79
2023-04-18T15:43:41.928Z,15.57
2023-04-18T15:48:43.724Z,16.11
2023-04-18T15:53:45.603Z,16.09
2023-04-18T15:58:47.412Z,17.16
2023-04-18T16:03:49.359Z,15.87
2023-04-18T16:08:51.245Z,13.61
2023-04-18T16:13:55.254Z,13.87
2023-04-18T16:18:57.067Z,15.34
2023-04-18T16:23:59.769Z,12.78
2023-04-18T16:29:01.692Z,14.36
2023-04-18T16:34:03.575Z,14.50
2023-04-18T16:39:05.421Z,13.60
2023-04-18T16:44:07.205Z,12.88
2023-04-18T16:49:09.001Z,12.29
2023-04-18T16:54:10.833Z,14.51
2023-04-18T16:59:12.643Z,14.03
2023-04-18T17:04:15.444Z,13.15
2023-04-18T17:09:17.996Z,16.10
2023-04-18T17:14:19.836Z,13.02
2023-04-18T17:19:23.184Z,13.93
2023-04-18T17:24:25.030Z,13.12
2023-04-18T17:29:27.305Z,16.04
2023-04-18T17:34:29.114Z,12.69
2023-04-18T17:39:31.813Z,14.55
2023-04-18T17:44:33.815Z,11.78
2023-04-18T17:49:36.093Z,9.49
2023-04-18T17:54:37.985Z,11.27
2023-04-18T17:59:39.953Z,13.69
2023-04-18T18:04:41.973Z,15.13
2023-04-18T18:09:45.489Z,16.02
2023-04-18T18:14:47.367Z,16.90
2023-04-18T18:19:49.262Z,16.27
2023-04-18T18:24:51.771Z,16.19
2023-04-18T18:29:53.787Z,15.60
2023-04-18T18:34:55.816Z,16.14
2023-04-18T18:39:58.705Z,15.88
2023-04-18T18:45:01.631Z,15.20
2023-04-18T18:50:03.976Z,15.03
2023-04-18T18:55:06.936Z,15.22
2023-04-18T19:00:12.492Z,14.79
2023-04-18T19:05:14.398Z,15.39
2023-04-18T19:10:16.319Z,13.10
2023-04-18T19:15:18.261Z,14.31
2023-04-18T19:20:20.277Z,14.04
2023-04-18T19:25:22.207Z,14.96
2023-04-18T19:30:25.090Z,14.92
2023-04-18T19:40:29.948Z,14.78
2023-04-18T19:45:31.885Z,14.47
2023-04-18T19:50:33.819Z,13.91
2023-04-18T19:55:35.932Z,13.64
2023-04-18T20:00:37.950Z,13.90
2023-04-18T20:05:39.868Z,13.61
2023-04-18T20:10:41.792Z,13.24
2023-04-18T20:15:43.587Z,13.62
2023-04-18T20:20:45.511Z,13.69
2023-04-18T20:25:47.354Z,13.32
2023-04-18T20:30:49.407Z,12.88
2023-04-18T20:35:51.300Z,12.03
2023-04-18T20:40:54.261Z,12.67
2023-04-18T20:45:58.668Z,12.48
2023-04-18T20:51:00.575Z,12.42
2023-04-18T20:56:05.723Z,11.17
2023-04-18T21:01:07.674Z,11.48
2023-04-18T21:06:12.105Z,11.18
2023-04-18T21:11:14.313Z,10.54
2023-04-18T21:16:16.219Z,11.44
2023-04-18T21:21:18.100Z,11.87
2023-04-18T21:26:20.156Z,11.44
2023-04-18T21:31:22.373Z,11.38
2023-04-18T21:36:26.515Z,10.96
2023-04-18T21:41:28.714Z,11.59
2023-04-18T21:46:30.557Z,11.82
2023-04-18T21:51:32.694Z,10.71
2023-04-18T21:56:34.485Z,10.80
2023-04-18T22:01:38.279Z,11.35
2023-04-18T22:06:40.233Z,11.43
2023-04-18T22:11:42.009Z,11.67
2023-04-18T22:16:45.063Z,11.26
2023-04-18T22:21:46.918Z,11.27
2023-04-18T22:26:48.953Z,10.58
2023-04-18T22:31:50.952Z,9.73
2023-04-18T22:36:53.905Z,9.83
2023-04-18T22:41:55.670Z,9.30
2023-04-18T22:46:57.586Z,9.89
2023-04-18T22:51:59.645Z,9.01
2023-04-18T22:57:02.355Z,10.90
2023-04-18T23:02:04.272Z,10.45
2023-04-18T23:07:06.263Z,10.93
2023-04-18T23:12:08.102Z,10.89
2023-04-18T23:17:09.892Z,9.99
2023-04-18T23:22:11.768Z,10.11
2023-04-18T23:27:13.530Z,10.65
2023-04-18T23:32:15.408Z,10.27
2023-04-18T23:37:17.171Z,10.58
2023-04-18T23:42:18.938Z,9.43
2023-04-18T23:47:21.405Z,9.39
2023-04-18T23:52:24.008Z,8.75
2023-04-18T23:57:25.736Z,9.95
